Charleston, SC (29406)

9:08 AM EDT on April 23, 2017 (GMT -0400)
Eagle Landing/Ontrato | | Change Station

Elev 20 ft 32.95 °N, 80.04 °W | Updated 8 seconds ago

Scattered Clouds
Scattered Clouds
78.3 °F
Feels Like 81 °F
N
2.0
Wind Variable Wind from South

Today
High -- | Low -- °F
--% Chance of Precip.
Yesterday
High -- | Low -- °F
Precip. -- in
Pressure 29.88 in
Visibility 10.0 miles
Clouds Scattered Clouds 1400 ft
Scattered Clouds 5500 ft
Heat Index 81 °F
Dew Point 71 °F
Humidity 79%
Rainfall 0.00 in
Snow Depth Not available.
6:40 AM 7:56 PM
Waning Crescent, 12% visible
METAR KCHS 231256Z 21010KT 10SM SCT014 SCT055 24/20 A2987 RMK AO2 SLP116 T02390200
Pressure 29.88 in
Visibility 10.0 miles
Clouds Scattered Clouds 1400 ft
Scattered Clouds 5500 ft
Heat Index 81 °F
Dew Point 71 °F
Humidity 79%
Rainfall 0.00 in
Snow Depth Not available.
6:40 AM 7:56 PM
Waning Crescent, 12% visible
METAR KCHS 231256Z 21010KT 10SM SCT014 SCT055 24/20 A2987 RMK AO2 SLP116 T02390200

Get Severe Weather Alerts

Thanks for signing up!

Be on the lookout for a verification email in your inbox.

You'll start receiving the daily forecast at 8 AM.

×

10-Day Weather Forecast

Almanac

Astronomy

Apr. 23, 2017 Rise Set
Actual Time
Civil Twilight
Nautical Twilight
Astronomical Twilight
Moon
Length of Visible Light
Length of Day
Tomorrow will be .
, % of the Moon is Illuminated

Today's Extremes

State Highs State Lows

Community

WunderPhotos

WunderBlog® & News

Nearby

Air Quality

  Air Quality AQ Index Pollutant
Not available.

Snow Depth

Station Depth Elevation

Earthquake Activity

City Distance Mag. Time & Date
Minimum magnitude displayed is 2.5.

Coastal Water Temperatures

Place Temperature

Stations

Nearby Weather Stations

Station Location Temp. Windchill Dew Point Humidity Wind Precip. Elev Updated Type
                   

Watches & Warnings

There are currently no watches in effect.